Blackrod, United Kingdom
Current Conditions -  °F | °C
As of 4:50 PM on Monday 22 Dec 2014 (Local Time) from EGNO Reporting Station
Rain Showers Rain Showers  
Wind Chill: 52°   Ceiling: Unl
Heat Index: 52°   Visibility: 4mi
Dew Point: 50°   Wind: 23mph
Humidity: 94%   Direction: 250°WSW
Pressure: 29.8"   Gusts: NA
Location:  53.59°N, 2.58°W
Report Text: EGNO 221650Z 25020KT 7000 VCSHRA FEW016 SCT022 11/10 Q1009
Loading
Personal Weather Stations






























Interactive Weather Map New forecast layout! Learn more

10-Day Weather Forecast

Advertisements
Track Severe Weather on mobile